Time;durP1;ratioP1;P1;durP2;ratioP2;P2;SDS_P1;SDS_P2;PMS_P1;PMS_P2;Temp;Humidity;BMP_temperature;BMP_pressure;BME280_temperature;BME280_humidity;BME280_pressure;Samples;Min_cycle;Max_cycle;Signal;HPM_P1;HPM_P2
2023/04/14 00:00:55;;;;;;;33.00;16.90;;;;;;;8.12;89.49;99232.59;108862;1259;72318;-67
2023/04/14 00:03:44;;;;;;;30.20;16.90;;;;;;;8.14;89.62;99229.61;108930;1259;67884;-66
2023/04/14 00:06:33;;;;;;;28.70;16.90;;;;;;;8.15;89.77;99229.33;108983;1259;71160;-64
2023/04/14 00:09:20;;;;;;;28.40;15.20;;;;;;;8.18;90.10;99226.95;108877;1259;59303;-66
2023/04/14 00:12:08;;;;;;;29.60;16.50;;;;;;;8.22;90.03;99223.81;108981;1259;61441;-66
2023/04/14 00:14:56;;;;;;;29.10;16.30;;;;;;;8.26;90.25;99218.95;108902;1259;72135;-66
2023/04/14 00:17:43;;;;;;;29.90;14.80;;;;;;;8.32;90.44;99218.45;108938;1259;67622;-66
2023/04/14 00:20:31;;;;;;;27.70;14.70;;;;;;;8.36;90.24;99222.36;108935;1259;72965;-65
2023/04/14 00:23:20;;;;;;;29.40;15.60;;;;;;;8.38;90.41;99224.48;108993;1259;57764;-66
2023/04/14 00:26:08;;;;;;;24.90;13.60;;;;;;;8.43;90.56;99227.48;108983;1259;60141;-63
2023/04/14 00:28:56;;;;;;;26.00;14.80;;;;;;;8.45;90.34;99230.45;108873;1259;73338;-65
2023/04/14 00:31:44;;;;;;;24.00;13.80;;;;;;;8.46;90.54;99227.09;109040;1259;67628;-66
2023/04/14 00:34:32;;;;;;;28.10;13.70;;;;;;;8.47;90.65;99233.46;109038;1259;72427;-66
2023/04/14 00:37:20;;;;;;;23.00;13.00;;;;;;;8.50;90.93;99232.88;108976;1259;58369;-65
2023/04/14 00:40:09;;;;;;;21.70;12.20;;;;;;;8.54;91.17;99234.58;108998;1259;59985;-66
2023/04/14 00:42:57;;;;;;;20.50;12.30;;;;;;;8.58;91.49;99233.16;108956;1260;71929;-66
2023/04/14 00:45:49;;;;;;;20.40;12.00;;;;;;;8.63;91.43;99232.19;109013;1259;66339;-66
2023/04/14 00:48:37;;;;;;;20.30;11.80;;;;;;;8.73;91.60;99230.91;108987;1259;72633;-66
2023/04/14 00:51:26;;;;;;;19.00;12.00;;;;;;;8.78;91.52;99229.38;108990;1258;59689;-66
2023/04/14 00:54:17;;;;;;;19.50;12.10;;;;;;;8.81;91.38;99233.73;109006;1258;60435;-67
2023/04/14 00:57:06;;;;;;;21.60;13.40;;;;;;;8.84;91.69;99231.55;109028;1259;71999;-66
2023/04/14 00:59:53;;;;;;;23.40;12.50;;;;;;;8.86;91.08;99232.95;109015;1258;68063;-66
2023/04/14 01:02:42;;;;;;;20.90;12.90;;;;;;;8.84;90.82;99230.46;109005;1259;72138;-67
2023/04/14 01:05:32;;;;;;;21.20;12.80;;;;;;;8.82;90.81;99234.91;109025;1259;57712;-66
2023/04/14 01:08:20;;;;;;;21.90;12.60;;;;;;;8.79;91.07;99234.56;108249;1259;1002587;-68
2023/04/14 01:11:31;;;;;;;22.50;14.00;;;;;;;8.78;91.01;99236.15;109101;1259;72085;-66
2023/04/14 01:15:10;;;;;;;20.70;13.00;;;;;;;8.75;91.41;99239.89;109143;1258;66542;-65
2023/04/14 01:18:18;;;;;;;21.40;12.90;;;;;;;8.75;91.52;99240.60;109038;1258;74346;-67
2023/04/14 01:21:16;;;;;;;21.60;12.60;;;;;;;8.75;91.49;99240.27;109026;1259;57957;-65
2023/04/14 01:24:40;;;;;;;21.10;12.30;;;;;;;8.75;91.68;99245.52;109012;1258;58726;-65
2023/04/14 01:28:03;;;;;;;20.70;12.10;;;;;;;8.78;91.88;99241.77;109049;1258;72440;-67
2023/04/14 01:31:37;;;;;;;20.60;12.00;;;;;;;8.80;92.25;99246.18;109003;1258;66454;-65
2023/04/14 01:34:48;;;;;;;19.80;11.50;;;;;;;8.83;92.30;99245.94;109036;1260;72851;-66
2023/04/14 01:37:47;;;;;;;21.20;12.40;;;;;;;8.87;92.74;99246.65;108991;1258;58072;-67
2023/04/14 01:40:39;;;;;;;18.10;11.50;;;;;;;8.90;92.94;99243.38;109062;1258;58854;-67
2023/04/14 01:43:31;;;;;;;18.10;11.60;;;;;;;8.91;93.00;99242.98;109024;1260;71086;-68
2023/04/14 01:46:20;;;;;;;17.90;11.90;;;;;;;8.93;93.07;99246.23;109016;1258;68053;-68
2023/04/14 01:49:10;;;;;;;19.60;12.60;;;;;;;8.89;92.75;99251.98;108928;1258;72702;-67
2023/04/14 01:52:00;;;;;;;20.90;12.50;;;;;;;8.84;92.98;99252.41;108870;1261;59580;-67
2023/04/14 01:54:52;;;;;;;22.90;12.90;;;;;;;8.79;93.17;99254.91;108843;1263;60537;-66
2023/04/14 01:57:41;;;;;;;20.80;12.30;;;;;;;8.77;93.58;99252.29;108781;1262;73233;-65
2023/04/14 02:00:29;;;;;;;21.60;11.90;;;;;;;8.77;93.90;99251.94;108818;1262;66295;-66
2023/04/14 02:03:22;;;;;;;18.70;11.00;;;;;;;8.77;94.22;99247.52;108793;1262;72919;-68
2023/04/14 02:06:12;;;;;;;18.40;11.60;;;;;;;8.75;94.58;99247.45;108704;1261;59922;-66
2023/04/14 02:09:03;;;;;;;16.90;10.20;;;;;;;8.74;94.76;99245.84;108824;1262;58784;-67
2023/04/14 02:11:53;;;;;;;16.40;9.40;;;;;;;8.74;95.03;99246.36;108820;1262;72465;-65
2023/04/14 02:14:42;;;;;;;14.80;9.00;;;;;;;8.71;95.28;99243.80;108854;1261;68129;-68
2023/04/14 02:17:30;;;;;;;18.80;10.50;;;;;;;8.70;95.46;99245.94;108782;1263;71242;-66
2023/04/14 02:20:20;;;;;;;19.80;10.90;;;;;;;8.70;95.72;99244.20;108684;1263;59611;-66
2023/04/14 02:23:08;;;;;;;19.70;11.40;;;;;;;8.71;95.39;99240.79;108771;1260;58694;-65
2023/04/14 02:26:03;;;;;;;18.30;10.50;;;;;;;8.69;95.27;99240.36;108721;1260;72316;-66
2023/04/14 02:29:12;;;;;;;16.00;9.80;;;;;;;8.68;95.22;99241.88;108881;1260;67672;-66
2023/04/14 02:32:10;;;;;;;16.20;9.40;;;;;;;8.66;95.36;99245.19;108800;1260;71154;-64
2023/04/14 02:35:15;;;;;;;17.60;10.30;;;;;;;8.65;95.30;99246.34;108821;1260;59852;-65
2023/04/14 02:38:09;;;;;;;16.50;10.20;;;;;;;8.65;95.68;99247.77;108817;1260;58715;-67
2023/04/14 02:41:05;;;;;;;19.80;11.00;;;;;;;8.66;95.66;99245.55;108829;1260;71927;-66
2023/04/14 02:44:22;;;;;;;18.40;10.40;;;;;;;8.66;95.55;99248.75;108864;1260;67613;-67
2023/04/14 02:47:14;;;;;;;17.90;9.80;;;;;;;8.66;95.48;99251.10;108813;1260;72575;-64
2023/04/14 02:50:08;;;;;;;18.10;10.40;;;;;;;8.64;95.51;99250.52;108979;1258;59272;-66
2023/04/14 02:52:58;;;;;;;18.60;11.80;;;;;;;8.63;95.50;99253.39;108958;1258;59169;-67
2023/04/14 02:55:53;;;;;;;20.10;11.60;;;;;;;8.63;95.78;99253.03;109012;1259;72206;-66
2023/04/14 02:58:42;;;;;;;22.50;13.20;;;;;;;8.64;95.61;99253.66;109065;1259;68161;-66
2023/04/14 03:01:31;;;;;;;21.50;12.70;;;;;;;8.67;95.45;99259.66;109021;1259;72422;-66
2023/04/14 03:04:21;;;;;;;21.60;12.70;;;;;;;8.67;95.40;99260.35;109057;1259;57049;-66
2023/04/14 03:07:12;;;;;;;21.10;12.60;;;;;;;8.66;95.24;99264.27;109056;1258;58780;-65
2023/04/14 03:10:01;;;;;;;21.40;12.10;;;;;;;8.64;95.28;99263.79;109015;1258;72296;-67
2023/04/14 03:12:51;;;;;;;20.70;13.50;;;;;;;8.63;95.70;99269.02;108908;1259;65785;-66
2023/04/14 03:15:42;;;;;;;22.60;12.90;;;;;;;8.61;95.56;99268.60;109065;1258;71460;-67
2023/04/14 03:18:33;;;;;;;22.40;12.80;;;;;;;8.62;95.57;99269.08;109022;1258;58287;-67
2023/04/14 03:21:22;;;;;;;21.40;13.20;;;;;;;8.62;95.44;99268.52;108289;1258;1002321;-66
2023/04/14 03:24:13;;;;;;;21.00;12.80;;;;;;;8.63;95.52;99275.73;108995;1258;70669;-68
2023/04/14 03:27:30;;;;;;;21.30;12.70;;;;;;;8.63;95.67;99275.55;109044;1258;67904;-68
2023/04/14 03:30:24;;;;;;;21.50;13.60;;;;;;;8.62;95.47;99276.16;109067;1259;73698;-68
2023/04/14 03:33:18;;;;;;;21.90;13.50;;;;;;;8.64;95.84;99280.09;108931;1258;57964;-68
2023/04/14 03:36:08;;;;;;;20.40;13.30;;;;;;;8.64;95.63;99279.51;108178;1258;1002389;-66
2023/04/14 03:39:00;;;;;;;20.80;13.30;;;;;;;8.64;95.51;99280.41;109030;1257;72294;-68
2023/04/14 03:41:53;;;;;;;21.40;12.30;;;;;;;8.62;95.59;99278.61;109168;1257;67854;-68
2023/04/14 03:44:48;;;;;;;22.10;13.00;;;;;;;8.64;95.70;99281.63;109049;1257;72446;-67
2023/04/14 03:47:37;;;;;;;19.60;11.70;;;;;;;8.66;95.88;99282.00;109064;1257;57008;-67
2023/04/14 03:50:30;;;;;;;21.00;13.70;;;;;;;8.67;95.37;99285.13;108987;1257;60174;-70
2023/04/14 03:53:20;;;;;;;21.70;12.90;;;;;;;8.64;95.68;99286.77;109018;1257;72404;-71
2023/04/14 03:56:12;;;;;;;25.40;15.30;;;;;;;8.61;95.56;99291.23;109051;1257;65976;-68
2023/04/14 03:59:02;;;;;;;23.20;14.80;;;;;;;8.61;95.76;99291.39;109091;1257;73544;-67
2023/04/14 04:01:52;;;;;;;25.50;14.60;;;;;;;8.63;96.04;99289.86;109012;1257;60530;-67
2023/04/14 04:04:41;;;;;;;23.10;15.00;;;;;;;8.65;96.00;99288.45;109117;1257;60679;-67
2023/04/14 04:07:31;;;;;;;24.10;14.80;;;;;;;8.67;95.78;99285.23;109124;1257;72230;-66
2023/04/14 04:10:20;;;;;;;24.10;14.20;;;;;;;8.71;95.76;99284.82;109110;1257;68060;-68
2023/04/14 04:13:16;;;;;;;22.40;13.80;;;;;;;8.73;95.62;99289.27;108864;1262;72672;-69
2023/04/14 04:16:06;;;;;;;26.30;14.60;;;;;;;8.76;95.78;99290.23;108763;1262;59145;-68
2023/04/14 04:18:56;;;;;;;23.70;15.00;;;;;;;8.79;95.64;99291.17;108747;1263;59282;-68
2023/04/14 04:21:52;;;;;;;24.20;14.90;;;;;;;8.81;95.92;99295.95;108794;1262;70793;-66
2023/04/14 04:24:41;;;;;;;22.30;13.10;;;;;;;8.83;95.89;99301.07;108769;1261;66637;-68
2023/04/14 04:27:33;;;;;;;25.30;14.40;;;;;;;8.84;95.92;99303.86;108775;1262;72611;-67
2023/04/14 04:30:32;;;;;;;23.90;13.80;;;;;;;8.84;95.90;99305.25;108803;1262;59610;-71
2023/04/14 04:33:22;;;;;;;21.80;12.70;;;;;;;8.84;95.87;99309.48;108672;1263;59273;-67
2023/04/14 04:36:12;;;;;;;19.50;12.30;;;;;;;8.86;95.92;99310.77;108865;1261;70112;-64
2023/04/14 04:39:04;;;;;;;21.30;12.40;;;;;;;8.89;96.13;99316.77;108782;1261;68042;-67
2023/04/14 04:42:03;;;;;;;21.60;11.50;;;;;;;8.91;96.40;99315.02;108791;1262;72574;-68
2023/04/14 04:44:52;;;;;;;19.40;11.30;;;;;;;8.91;96.29;99316.77;109001;1257;57720;-68
2023/04/14 04:47:42;;;;;;;19.60;11.60;;;;;;;8.92;96.21;99312.03;108935;1257;58891;-71
2023/04/14 04:50:34;;;;;;;21.10;11.70;;;;;;;8.94;96.22;99316.52;109083;1257;72035;-68
2023/04/14 04:53:25;;;;;;;21.10;12.40;;;;;;;8.92;96.26;99315.77;109122;1259;66256;-68
2023/04/14 04:56:14;;;;;;;21.00;13.20;;;;;;;8.93;96.35;99317.14;109028;1257;72887;-68
2023/04/14 04:59:04;;;;;;;21.60;12.60;;;;;;;8.95;96.39;99318.71;109005;1262;59306;-71
2023/04/14 05:01:52;;;;;;;21.10;13.40;;;;;;;8.97;96.41;99326.31;108928;1257;60107;-68
2023/04/14 05:04:40;;;;;;;22.90;13.30;;;;;;;8.99;96.23;99328.23;109015;1257;72245;-67
2023/04/14 05:07:29;;;;;;;25.10;14.80;;;;;;;9.03;96.26;99332.96;108984;1257;65926;-67
2023/04/14 05:10:17;;;;;;;26.20;17.00;;;;;;;9.06;96.15;99333.07;109017;1261;72401;-67
2023/04/14 05:13:06;;;;;;;27.30;16.30;;;;;;;9.08;95.98;99337.83;108999;1257;58301;-67
2023/04/14 05:16:10;;;;;;;26.00;14.60;;;;;;;9.12;95.78;99338.61;109047;1257;59245;-69
2023/04/14 05:18:59;;;;;;;21.40;12.70;;;;;;;9.14;95.90;99340.20;109071;1257;70974;-68
2023/04/14 05:21:48;;;;;;;22.70;13.90;;;;;;;9.16;95.79;99337.53;109144;1258;66324;-70
2023/04/14 05:24:36;;;;;;;23.30;13.70;;;;;;;9.19;95.63;99336.85;109015;1257;73619;-68
2023/04/14 05:27:25;;;;;;;26.10;14.50;;;;;;;9.24;95.43;99340.44;109010;1261;59625;-67
2023/04/14 05:30:13;;;;;;;25.30;14.30;;;;;;;9.29;95.33;99337.17;108997;1258;60442;-68
2023/04/14 05:33:01;;;;;;;26.60;14.70;;;;;;;9.37;95.11;99334.16;109012;1257;72175;-67
2023/04/14 05:35:51;;;;;;;25.60;14.50;;;;;;;9.46;94.82;99331.85;109148;1257;65900;-68
2023/04/14 05:38:40;;;;;;;25.50;14.70;;;;;;;9.60;94.77;99330.50;108953;1257;72797;-70
2023/04/14 05:41:28;;;;;;;24.20;13.70;;;;;;;9.72;93.96;99324.83;109149;1257;57769;-68
2023/04/14 05:44:16;;;;;;;26.30;14.90;;;;;;;9.84;93.48;99325.70;109110;1257;59442;-68
2023/04/14 05:47:04;;;;;;;23.30;13.30;;;;;;;9.98;92.74;99324.39;109067;1258;70766;-70
2023/04/14 05:49:52;;;;;;;24.00;15.00;;;;;;;10.15;92.66;99327.00;109091;1257;67619;-69
2023/04/14 05:52:41;;;;;;;27.60;16.20;;;;;;;10.36;91.84;99322.52;109066;1257;73483;-67
2023/04/14 05:55:29;;;;;;;30.20;17.20;;;;;;;10.58;91.43;99320.77;109100;1257;58360;-70
2023/04/14 05:58:17;;;;;;;27.10;14.60;;;;;;;10.84;90.06;99314.66;109135;1257;58668;-72
2023/04/14 06:01:05;;;;;;;25.30;14.40;;;;;;;11.20;89.66;99313.75;109158;1257;70681;-69
2023/04/14 06:03:53;;;;;;;34.10;21.10;;;;;;;11.70;87.95;99315.33;109089;1259;67850;-68
2023/04/14 06:06:41;;;;;;;31.10;19.20;;;;;;;12.29;86.39;99316.34;109105;1257;71254;-69
2023/04/14 06:09:29;;;;;;;24.20;13.50;;;;;;;12.81;83.75;99313.45;109081;1257;57026;-68
2023/04/14 06:12:17;;;;;;;20.20;12.70;;;;;;;13.21;81.35;99313.64;109131;1257;60403;-68
2023/04/14 06:15:05;;;;;;;17.20;10.70;;;;;;;13.61;79.12;99316.33;109042;1257;72423;-64
2023/04/14 06:17:53;;;;;;;16.60;10.30;;;;;;;14.01;76.74;99318.23;109052;1257;66475;-71
2023/04/14 06:20:41;;;;;;;15.20;9.50;;;;;;;14.66;74.84;99320.19;109102;1257;71191;-69
2023/04/14 06:23:32;;;;;;;18.30;9.70;;;;;;;15.91;70.96;99323.70;109090;1257;58018;-71
2023/04/14 06:26:21;;;;;;;19.30;11.00;;;;;;;17.27;64.61;99319.26;109063;1257;60175;-70
2023/04/14 06:29:09;;;;;;;17.70;10.40;;;;;;;18.56;60.57;99318.56;109128;1257;71945;-69
2023/04/14 06:31:56;;;;;;;16.30;10.30;;;;;;;19.81;57.65;99320.90;109101;1258;67666;-68
2023/04/14 06:34:47;;;;;;;13.40;9.00;;;;;;;20.94;53.12;99322.84;109150;1257;71126;-70
2023/04/14 06:37:37;;;;;;;14.50;9.20;;;;;;;21.95;49.50;99321.13;109158;1257;57006;-72
2023/04/14 06:40:25;;;;;;;13.10;8.10;;;;;;;22.80;46.48;99320.95;109098;1257;58719;-71
2023/04/14 06:43:16;;;;;;;12.60;7.20;;;;;;;23.57;44.29;99317.88;109108;1258;69786;-69
2023/04/14 06:46:04;;;;;;;12.40;6.70;;;;;;;24.21;41.72;99318.79;109091;1257;67705;-70
2023/04/14 06:48:52;;;;;;;10.30;5.20;;;;;;;24.68;39.57;99320.12;109134;1260;70459;-71
2023/04/14 06:51:40;;;;;;;10.10;5.70;;;;;;;25.04;38.46;99318.36;109128;1257;57692;-71
2023/04/14 06:54:30;;;;;;;8.40;5.30;;;;;;;25.34;37.97;99314.19;109154;1257;58754;-72
2023/04/14 06:57:19;;;;;;;8.80;5.30;;;;;;;25.83;37.41;99312.68;109131;1258;71982;-70
2023/04/14 07:00:09;;;;;;;9.30;5.70;;;;;;;26.15;36.13;99315.36;109140;1260;66798;-70
2023/04/14 07:02:57;;;;;;;10.70;6.50;;;;;;;26.47;35.68;99316.98;109085;1257;73888;-70
2023/04/14 07:05:45;;;;;;;10.60;7.00;;;;;;;26.64;34.33;99313.02;109075;1257;57233;-70
2023/04/14 07:08:34;;;;;;;10.20;6.40;;;;;;;26.50;33.56;99309.38;109090;1257;60401;-69
2023/04/14 07:11:22;;;;;;;11.80;7.20;;;;;;;26.63;33.93;99304.06;109088;1257;71890;-70
2023/04/14 07:14:09;;;;;;;12.00;6.70;;;;;;;26.87;33.20;99301.98;109047;1257;66718;-71
2023/04/14 07:16:57;;;;;;;10.30;6.60;;;;;;;27.12;33.31;99295.35;109101;1258;72422;-69
2023/04/14 07:19:46;;;;;;;12.30;7.00;;;;;;;27.41;32.95;99288.80;109094;1259;58103;-69
2023/04/14 07:22:34;;;;;;;10.60;5.90;;;;;;;27.68;32.00;99285.27;109027;1257;60271;-71
2023/04/14 07:25:22;;;;;;;9.50;6.10;;;;;;;28.03;31.73;99282.98;109113;1257;71981;-67
2023/04/14 07:28:10;;;;;;;8.60;5.80;;;;;;;28.37;30.75;99282.83;109130;1258;68059;-69
2023/04/14 07:30:59;;;;;;;10.20;5.50;;;;;;;28.55;30.29;99283.73;109099;1257;72440;-69
2023/04/14 07:33:46;;;;;;;9.60;5.50;;;;;;;28.49;29.56;99286.67;109086;1257;58105;-70
2023/04/14 07:36:35;;;;;;;10.90;6.00;;;;;;;28.59;29.98;99285.37;109127;1257;60197;-69
2023/04/14 07:39:23;;;;;;;10.10;6.50;;;;;;;28.79;29.43;99289.20;109129;1257;72203;-69
2023/04/14 07:42:11;;;;;;;10.50;6.50;;;;;;;28.92;29.22;99289.94;109176;1257;67639;-69
2023/04/14 07:44:59;;;;;;;10.10;6.80;;;;;;;29.10;29.24;99287.46;109045;1257;72799;-70
2023/04/14 07:47:48;;;;;;;11.60;6.80;;;;;;;29.26;28.68;99287.67;109062;1257;56938;-70
2023/04/14 07:50:36;;;;;;;10.80;6.50;;;;;;;29.37;28.58;99285.26;109110;1257;60724;-73
2023/04/14 07:53:25;;;;;;;10.30;7.00;;;;;;;29.37;28.36;99287.13;109082;1257;72474;-70
2023/04/14 07:56:13;;;;;;;10.50;6.90;;;;;;;29.43;28.09;99284.59;108986;1257;67345;-70
2023/04/14 07:59:02;;;;;;;12.10;7.40;;;;;;;29.32;27.80;99290.70;108982;1257;72484;-70
2023/04/14 08:01:50;;;;;;;11.60;7.80;;;;;;;29.32;28.40;99287.30;109064;1257;58051;-71
2023/04/14 08:04:38;;;;;;;10.40;7.20;;;;;;;29.35;27.85;99285.84;108990;1258;60407;-71
2023/04/14 08:07:30;;;;;;;11.10;6.90;;;;;;;29.20;27.89;99287.61;109043;1259;70685;-71
2023/04/14 08:10:17;;;;;;;12.20;8.90;;;;;;;28.92;28.57;99295.19;109120;1257;66873;-68
2023/04/14 08:13:06;;;;;;;12.00;8.50;;;;;;;28.79;28.36;99291.13;109064;1257;72393;-68
2023/04/14 08:15:53;;;;;;;11.50;7.70;;;;;;;28.63;28.42;99291.06;109088;1257;57914;-69
2023/04/14 08:18:42;;;;;;;12.80;8.70;;;;;;;28.24;28.79;99293.33;109039;1257;59296;-70
2023/04/14 08:21:30;;;;;;;13.20;8.60;;;;;;;27.67;29.49;99292.19;109072;1257;73075;-69
2023/04/14 08:24:18;;;;;;;25.80;18.90;;;;;;;26.18;31.13;99293.65;109050;1257;67729;-67
2023/04/14 08:27:06;;;;;;;16.80;11.90;;;;;;;25.03;32.82;99296.35;109085;1257;71027;-69
2023/04/14 08:29:54;;;;;;;13.70;9.00;;;;;;;24.31;34.17;99297.77;108955;1257;56919;-70
2023/04/14 08:32:42;;;;;;;13.20;8.60;;;;;;;24.07;34.64;99292.33;109013;1258;60068;-69
2023/04/14 08:35:30;;;;;;;12.60;8.60;;;;;;;23.88;34.95;99293.59;109081;1257;70869;-70
2023/04/14 08:38:28;;;;;;;13.20;8.70;;;;;;;22.97;36.40;99289.77;109028;1258;66464;-69
2023/04/14 08:41:20;;;;;;;12.10;8.50;;;;;;;22.29;37.71;99290.09;109061;1257;72686;-68
2023/04/14 08:44:08;;;;;;;13.70;8.70;;;;;;;21.98;38.75;99290.95;109061;1257;57705;-69
2023/04/14 08:46:57;;;;;;;13.30;9.70;;;;;;;22.34;38.61;99291.96;109053;1259;58780;-69
2023/04/14 08:50:10;;;;;;;13.80;8.30;;;;;;;23.25;37.25;99290.60;109009;1259;70697;-70
2023/04/14 08:53:04;;;;;;;13.60;8.50;;;;;;;24.16;35.46;99296.95;108938;1260;66769;-66
2023/04/14 08:55:54;;;;;;;11.70;8.00;;;;;;;25.05;34.28;99298.03;109011;1259;73455;-70
2023/04/14 08:58:46;;;;;;;13.80;9.10;;;;;;;24.79;33.94;99301.94;108991;1259;57008;-69
2023/04/14 09:01:36;;;;;;;12.20;8.30;;;;;;;25.41;33.53;99303.39;108923;1260;60511;-74
2023/04/14 09:04:26;;;;;;;12.00;7.50;;;;;;;26.00;32.54;99306.08;109021;1262;72440;-70
2023/04/14 09:07:14;;;;;;;13.70;8.00;;;;;;;26.29;31.62;99312.38;108942;1259;68932;-70
2023/04/14 09:10:03;;;;;;;11.10;7.50;;;;;;;26.23;31.50;99312.95;108972;1260;72860;-69
2023/04/14 09:12:52;;;;;;;10.90;7.20;;;;;;;26.14;31.34;99313.75;109034;1259;57697;-70
2023/04/14 09:15:40;;;;;;;11.00;6.50;;;;;;;26.28;30.94;99315.36;108984;1260;60106;-72
2023/04/14 09:18:30;;;;;;;12.50;7.40;;;;;;;26.03;31.23;99315.69;109099;1258;72442;-70
2023/04/14 09:21:23;;;;;;;9.30;6.00;;;;;;;25.65;31.73;99306.55;109111;1257;67919;-69
2023/04/14 09:24:33;;;;;;;11.40;5.70;;;;;;;25.11;32.24;99313.84;109063;1260;73276;-69
2023/04/14 09:27:20;;;;;;;8.90;5.10;;;;;;;24.93;32.66;99314.16;109062;1257;58077;-69
2023/04/14 09:30:09;;;;;;;8.60;5.30;;;;;;;25.10;32.54;99312.21;109070;1258;59125;-68
2023/04/14 09:32:58;;;;;;;9.00;5.50;;;;;;;25.58;32.05;99304.58;109135;1257;70910;-71
2023/04/14 09:35:49;;;;;;;9.30;6.20;;;;;;;25.97;31.33;99303.60;109060;1257;67810;-70
2023/04/14 09:38:38;;;;;;;10.70;5.50;;;;;;;25.71;31.38;99300.52;109051;1257;72672;-68
2023/04/14 09:41:26;;;;;;;8.40;5.40;;;;;;;25.80;31.48;99297.02;109060;1257;57805;-70
2023/04/14 09:44:14;;;;;;;7.70;5.10;;;;;;;26.10;31.13;99300.09;109009;1257;58695;-69
2023/04/14 09:47:05;;;;;;;8.60;5.30;;;;;;;26.44;30.82;99303.73;109094;1257;72962;-74
2023/04/14 09:49:58;;;;;;;8.80;4.70;;;;;;;26.67;30.47;99302.00;109062;1257;66447;-70
2023/04/14 09:52:48;;;;;;;9.10;5.50;;;;;;;26.83;30.15;99302.17;109133;1257;71219;-68
2023/04/14 09:55:36;;;;;;;9.20;5.20;;;;;;;27.00;29.99;99297.05;108902;1260;57689;-71
2023/04/14 09:58:35;;;;;;;8.20;4.90;;;;;;;27.30;29.45;99294.40;109046;1259;60856;-70
2023/04/14 10:01:27;;;;;;;8.00;5.40;;;;;;;27.79;29.31;99296.85;108673;1259;218260;-68
2023/04/14 10:04:27;;;;;;;8.50;5.10;;;;;;;28.30;28.45;99303.09;108887;1259;68233;-69
2023/04/14 10:07:17;;;;;;;9.50;4.40;;;;;;;28.61;27.77;99306.58;108925;1260;71471;-68
2023/04/14 10:10:08;;;;;;;8.40;4.90;;;;;;;28.83;27.54;99310.55;108984;1260;56918;-69
2023/04/14 10:12:59;;;;;;;7.80;4.50;;;;;;;28.74;27.39;99311.54;108981;1260;58774;-70
2023/04/14 10:15:46;;;;;;;8.60;5.20;;;;;;;28.09;28.07;99306.09;108897;1260;72472;-75
2023/04/14 10:18:35;;;;;;;7.20;3.90;;;;;;;27.59;28.69;99307.10;108964;1260;66389;-68
2023/04/14 10:21:24;;;;;;;7.70;4.20;;;;;;;26.30;30.08;99307.59;108886;1260;71339;-71
2023/04/14 10:24:13;;;;;;;9.70;5.30;;;;;;;25.82;31.36;99298.98;108871;1260;56870;-68
2023/04/14 10:27:02;;;;;;;8.80;4.80;;;;;;;25.15;32.03;99304.29;109008;1257;59036;-71
2023/04/14 10:29:51;;;;;;;8.00;4.40;;;;;;;24.82;32.80;99304.35;109106;1260;72196;-70
2023/04/14 10:32:44;;;;;;;9.60;5.10;;;;;;;24.29;33.74;99306.79;109006;1257;66702;-70
2023/04/14 10:35:45;;;;;;;9.30;4.70;;;;;;;23.99;34.30;99305.00;109080;1260;72165;-67
2023/04/14 10:38:44;;;;;;;8.00;4.40;;;;;;;23.41;35.44;99304.42;109105;1260;56874;-69
2023/04/14 10:41:41;;;;;;;9.40;5.80;;;;;;;22.13;37.33;99307.90;109031;1257;60069;-69
2023/04/14 10:44:34;;;;;;;9.80;5.90;;;;;;;20.82;39.82;99313.45;109026;1258;70869;-70
2023/04/14 10:47:24;;;;;;;9.90;6.30;;;;;;;19.85;42.15;99313.21;109088;1258;66452;-67
2023/04/14 10:50:16;;;;;;;11.00;6.80;;;;;;;19.05;44.37;99313.84;109160;1257;70289;-68
2023/04/14 10:53:06;;;;;;;9.90;6.30;;;;;;;18.68;45.80;99316.19;109081;1258;56964;-70
2023/04/14 10:55:57;;;;;;;11.90;7.90;;;;;;;18.41;46.93;99314.79;109148;1257;58784;-66
2023/04/14 10:58:57;;;;;;;12.70;8.60;;;;;;;18.02;48.10;99315.56;109110;1257;70936;-67
2023/04/14 11:01:53;;;;;;;13.00;8.10;;;;;;;17.64;49.69;99311.47;109168;1257;67971;-67
2023/04/14 11:04:58;;;;;;;15.20;10.30;;;;;;;17.39;51.15;99313.77;109036;1261;72380;-68
2023/04/14 11:07:51;;;;;;;14.20;9.40;;;;;;;17.11;52.46;99311.78;109029;1257;57006;-68
2023/04/14 11:10:40;;;;;;;14.20;9.70;;;;;;;17.30;52.59;99310.79;109025;1262;58962;-67
2023/04/14 11:13:30;;;;;;;15.40;9.50;;;;;;;17.40;52.43;99310.19;109123;1257;72108;-68
2023/04/14 11:16:27;;;;;;;17.80;11.40;;;;;;;17.55;52.37;99308.47;109081;1257;66250;-70
2023/04/14 11:19:15;;;;;;;15.00;9.90;;;;;;;17.94;51.54;99305.66;109060;1257;72385;-69
2023/04/14 11:22:04;;;;;;;15.70;10.40;;;;;;;18.68;50.20;99300.27;109160;1257;57794;-68
2023/04/14 11:24:53;;;;;;;17.10;11.30;;;;;;;19.56;47.70;99300.59;109024;1257;59663;-71
2023/04/14 11:27:46;;;;;;;17.50;10.10;;;;;;;19.90;46.51;99305.99;109111;1257;70777;-69
2023/04/14 11:30:33;;;;;;;14.90;11.10;;;;;;;19.69;46.53;99306.45;109143;1257;66343;-68
2023/04/14 11:33:21;;;;;;;16.30;10.50;;;;;;;19.35;46.96;99309.44;109093;1261;72444;-68
2023/04/14 11:36:11;;;;;;;15.40;10.50;;;;;;;19.00;47.99;99303.08;108939;1257;59190;-69
2023/04/14 11:39:01;;;;;;;15.70;10.20;;;;;;;18.66;49.01;99305.67;109114;1257;61109;-68
2023/04/14 11:41:50;;;;;;;15.40;10.40;;;;;;;18.30;49.90;99305.17;109138;1257;69758;-70
2023/04/14 11:44:40;;;;;;;18.40;11.10;;;;;;;17.78;51.33;99303.98;108922;1264;66571;-68
2023/04/14 11:47:29;;;;;;;16.70;11.30;;;;;;;17.24;52.93;99305.05;108750;1263;72852;-70
2023/04/14 11:50:18;;;;;;;21.10;12.80;;;;;;;16.94;54.18;99308.00;108786;1264;56976;-67
2023/04/14 11:53:08;;;;;;;17.40;11.70;;;;;;;16.94;54.75;99311.45;108827;1263;58713;-69
2023/04/14 11:55:57;;;;;;;20.80;12.60;;;;;;;16.65;55.82;99304.20;108828;1264;70722;-70
2023/04/14 11:58:45;;;;;;;17.20;11.10;;;;;;;16.33;56.23;99307.27;108818;1262;67619;-67
2023/04/14 12:01:32;;;;;;;17.70;11.50;;;;;;;16.18;57.08;99305.99;108820;1264;71120;-67
2023/04/14 12:04:20;;;;;;;16.00;10.60;;;;;;;16.04;57.73;99302.05;108812;1263;57960;-68
2023/04/14 12:07:13;;;;;;;17.00;10.60;;;;;;;16.37;57.34;99306.01;108598;1266;60507;-70
2023/04/14 12:10:04;;;;;;;17.00;10.70;;;;;;;16.67;56.56;99296.34;108563;1265;73455;-69
2023/04/14 12:13:02;;;;;;;17.80;10.40;;;;;;;16.64;56.12;99299.81;108536;1265;66785;-68
2023/04/14 12:15:50;;;;;;;17.40;11.10;;;;;;;16.58;56.48;99299.52;108816;1260;71111;-66
2023/04/14 12:18:40;;;;;;;18.20;11.00;;;;;;;16.33;56.81;99300.75;108832;1261;57014;-68
2023/04/14 12:21:28;;;;;;;17.90;10.50;;;;;;;16.14;57.13;99305.38;108733;1260;58715;-68
2023/04/14 12:24:16;;;;;;;15.70;10.00;;;;;;;16.20;57.23;99305.24;108727;1260;72334;-69
2023/04/14 12:27:06;;;;;;;15.70;9.90;;;;;;;16.40;57.15;99302.57;108811;1260;67908;-67
2023/04/14 12:29:53;;;;;;;17.70;10.30;;;;;;;16.56;56.72;99296.80;108753;1260;71491;-68
2023/04/14 12:32:42;;;;;;;13.40;9.10;;;;;;;16.62;56.06;99292.46;108823;1260;57107;-68
2023/04/14 12:35:34;;;;;;;14.40;9.60;;;;;;;16.51;55.93;99293.60;108753;1261;60631;-67
2023/04/14 12:38:28;;;;;;;13.60;9.10;;;;;;;16.36;56.17;99292.48;108842;1257;72003;-71
2023/04/14 12:41:23;;;;;;;16.70;9.30;;;;;;;16.21;56.97;99291.31;108966;1257;66633;-68
2023/04/14 12:44:17;;;;;;;14.80;9.30;;;;;;;15.94;57.58;99285.71;109107;1257;71226;-68
2023/04/14 12:47:06;;;;;;;16.50;9.20;;;;;;;15.70;58.23;99285.73;109076;1257;56933;-67
2023/04/14 12:49:54;;;;;;;16.30;9.50;;;;;;;15.41;59.27;99287.52;109071;1257;57713;-64
2023/04/14 12:52:43;;;;;;;15.40;9.00;;;;;;;15.13;59.90;99285.52;109043;1257;72358;-68
2023/04/14 12:55:31;;;;;;;18.20;10.10;;;;;;;14.83;61.14;99284.34;109143;1257;66392;-66
2023/04/14 12:58:18;;;;;;;15.40;8.60;;;;;;;14.53;62.30;99289.46;109077;1257;72635;-66
2023/04/14 13:01:10;;;;;;;14.40;9.20;;;;;;;14.23;63.28;99290.06;109043;1257;56907;-67
2023/04/14 13:03:58;;;;;;;17.90;9.70;;;;;;;14.03;64.47;99285.56;108913;1257;58295;-67
2023/04/14 13:06:46;;;;;;;14.10;8.70;;;;;;;13.86;65.23;99284.48;109128;1257;70949;-67